Time;durP1;ratioP1;P1;durP2;ratioP2;P2;SDS_P1;SDS_P2;PMS_P1;PMS_P2;Temp;Humidity;BMP_temperature;BMP_pressure;BME280_temperature;BME280_humidity;BME280_pressure;Samples;Min_cycle;Max_cycle;Signal;HPM_P1;HPM_P2
2021/11/20 00:01:29;;;;;;;;;;;6.40;63.70;;;;;;4374946;32;19973;-54
2021/11/20 00:03:55;;;;;;;;;;;6.40;63.70;;;;;;4374619;32;20410;-52
2021/11/20 00:06:27;;;;;;;;;;;6.30;63.80;;;;;;4374581;32;19962;-51
2021/11/20 00:08:54;;;;;;;;;;;6.30;63.80;;;;;;4374252;32;20032;-54
2021/11/20 00:11:22;;;;;;;;;;;6.30;63.80;;;;;;4374897;32;19985;-52
2021/11/20 00:13:49;;;;;;;;;;;6.30;63.90;;;;;;4374772;32;19957;-52
2021/11/20 00:16:15;;;;;;;;;;;6.30;64.10;;;;;;4374822;32;19966;-50
2021/11/20 00:18:42;;;;;;;;;;;6.30;64.10;;;;;;4374323;32;19985;-54
2021/11/20 00:21:13;;;;;;;;;;;6.30;64.20;;;;;;4384991;32;20073;-51
2021/11/20 00:23:43;;;;;;;;;;;6.20;64.20;;;;;;4389160;32;19968;-51
2021/11/20 00:26:10;;;;;;;;;;;6.20;64.20;;;;;;4389438;32;20487;-51
2021/11/20 00:29:06;;;;;;;;;;;6.20;64.20;;;;;;4388922;32;19987;-52
2021/11/20 00:31:47;;;;;;;;;;;6.20;64.30;;;;;;4389097;32;19970;-50
2021/11/20 00:34:16;;;;;;;;;;;6.10;64.40;;;;;;4389329;32;20012;-53
2021/11/20 00:36:42;;;;;;;;;;;6.10;64.50;;;;;;4389197;32;20078;-51
2021/11/20 00:39:11;;;;;;;;;;;6.10;64.60;;;;;;4388719;32;20085;-49
2021/11/20 00:41:38;;;;;;;;;;;6.10;64.70;;;;;;4389203;32;19962;-50
2021/11/20 00:44:04;;;;;;;;;;;6.10;64.80;;;;;;4389453;32;20362;-50
2021/11/20 00:46:31;;;;;;;;;;;6.10;64.80;;;;;;4388954;32;19973;-50
2021/11/20 00:48:57;;;;;;;;;;;6.10;64.80;;;;;;4389040;32;19961;-54
2021/11/20 00:51:26;;;;;;;;;;;6.10;65.00;;;;;;4388707;32;20000;-51
2021/11/20 00:53:53;;;;;;;;;;;6.00;65.00;;;;;;4389004;32;19991;-54
2021/11/20 00:56:20;;;;;;;;;;;6.00;64.90;;;;;;4389503;32;19977;-49
2021/11/20 00:58:46;;;;;;;;;;;6.00;64.80;;;;;;4388496;32;20004;-52
2021/11/20 01:01:15;;;;;;;;;;;6.00;64.80;;;;;;4389029;32;20420;-48
2021/11/20 01:03:42;;;;;;;;;;;6.00;64.90;;;;;;4388640;32;19995;-47
2021/11/20 01:06:08;;;;;;;;;;;6.00;65.00;;;;;;4374717;32;20128;-49
2021/11/20 01:08:36;;;;;;;;;;;6.00;64.90;;;;;;4388856;32;19972;-50
2021/11/20 01:11:16;;;;;;;;;;;6.00;64.90;;;;;;4374026;32;20151;-49
2021/11/20 01:13:42;;;;;;;;;;;6.10;64.80;;;;;;4388753;32;19970;-49
2021/11/20 01:16:10;;;;;;;;;;;6.00;64.80;;;;;;4374750;32;19981;-50
2021/11/20 01:18:36;;;;;;;;;;;6.00;64.90;;;;;;4355451;32;19970;-40
2021/11/20 01:21:03;;;;;;;;;;;6.10;64.80;;;;;;4346340;32;19963;-51
2021/11/20 01:23:30;;;;;;;;;;;6.10;64.70;;;;;;4341310;33;19970;-52
2021/11/20 01:25:56;;;;;;;;;;;6.10;64.70;;;;;;4341194;32;20067;-50
2021/11/20 01:28:24;;;;;;;;;;;6.00;64.70;;;;;;4341357;32;20476;-50
2021/11/20 01:30:50;;;;;;;;;;;6.10;64.50;;;;;;4341705;33;19966;-48
2021/11/20 01:33:17;;;;;;;;;;;6.00;64.50;;;;;;4328745;33;20060;-51
2021/11/20 01:35:43;;;;;;;;;;;6.10;65.10;;;;;;4340850;33;20421;-53
2021/11/20 01:38:10;;;;;;;;;;;6.10;64.30;;;;;;4328503;33;19977;-50
2021/11/20 01:40:37;;;;;;;;;;;6.00;64.20;;;;;;4341211;33;19978;-51
2021/11/20 01:43:04;;;;;;;;;;;5.90;64.10;;;;;;4341364;33;19981;-51
2021/11/20 01:45:36;;;;;;;;;;;5.80;64.30;;;;;;4340864;33;19989;-52
2021/11/20 01:48:38;;;;;;;;;;;5.80;64.40;;;;;;4340868;33;19975;-52
2021/11/20 01:51:15;;;;;;;;;;;5.80;64.40;;;;;;4358412;32;20033;-56
2021/11/20 01:54:01;;;;;;;;;;;5.70;64.00;;;;;;4358321;32;19970;-51
2021/11/20 01:56:38;;;;;;;;;;;5.70;64.00;;;;;;4358575;32;20048;-52
2021/11/20 01:59:13;;;;;;;;;;;5.60;63.90;;;;;;4344665;32;20472;-55
2021/11/20 02:02:06;;;;;;;;;;;5.60;64.00;;;;;;4358136;32;20348;-54
2021/11/20 02:04:50;;;;;;;;;;;5.60;63.70;;;;;;4352824;32;19963;-44
2021/11/20 02:07:40;;;;;;;;;;;5.60;63.70;;;;;;4344780;32;19994;-55
2021/11/20 02:10:14;;;;;;;;;;;5.50;63.70;;;;;;4343918;32;19974;-55
2021/11/20 02:12:52;;;;;;;;;;;5.50;63.70;;;;;;4357813;32;19997;-53
2021/11/20 02:15:42;;;;;;;;;;;5.50;63.80;;;;;;4344760;32;19973;-54
2021/11/20 02:18:09;;;;;;;;;;;5.60;63.90;;;;;;4357563;32;20061;-56
2021/11/20 02:20:48;;;;;;;;;;;5.60;64.10;;;;;;4364219;32;20154;-57
2021/11/20 02:23:16;;;;;;;;;;;5.50;64.00;;;;;;4347388;32;19965;-55
2021/11/20 02:25:42;;;;;;;;;;;5.50;64.00;;;;;;4372492;32;19970;-45
2021/11/20 02:28:08;;;;;;;;;;;5.40;64.00;;;;;;4372734;32;19992;-55
2021/11/20 02:30:39;;;;;;;;;;;5.40;64.20;;;;;;4372966;32;19966;-51
2021/11/20 02:33:16;;;;;;;;;;;5.30;64.50;;;;;;4373089;32;20023;-53
2021/11/20 02:35:45;;;;;;;;;;;5.20;64.50;;;;;;4372689;32;19974;-51
2021/11/20 02:38:14;;;;;;;;;;;5.20;64.50;;;;;;4379187;32;20081;-56
2021/11/20 02:40:41;;;;;;;;;;;5.10;64.60;;;;;;4387952;32;20074;-52
2021/11/20 02:43:07;;;;;;;;;;;5.10;64.70;;;;;;4388412;32;19966;-52
2021/11/20 02:45:41;;;;;;;;;;;5.10;64.50;;;;;;4387603;32;20518;-53
2021/11/20 02:48:07;;;;;;;;;;;5.00;64.60;;;;;;4387481;32;20398;-53
2021/11/20 02:50:39;;;;;;;;;;;5.00;64.30;;;;;;4387750;32;20057;-50
2021/11/20 02:53:12;;;;;;;;;;;5.00;64.40;;;;;;4387882;32;19978;-53
2021/11/20 02:55:43;;;;;;;;;;;5.00;64.00;;;;;;4388085;32;19957;-54
2021/11/20 02:58:10;;;;;;;;;;;5.00;63.80;;;;;;4373671;32;20394;-52
2021/11/20 03:00:36;;;;;;;;;;;5.00;63.50;;;;;;4373488;32;20029;-55
2021/11/20 03:03:02;;;;;;;;;;;5.00;63.60;;;;;;4387739;32;19977;-54
2021/11/20 03:05:28;;;;;;;;;;;5.10;63.50;;;;;;4387453;32;19953;-56
2021/11/20 03:07:54;;;;;;;;;;;5.00;63.20;;;;;;4387337;32;20389;-52
2021/11/20 03:10:21;;;;;;;;;;;5.10;63.20;;;;;;4387605;32;20013;-50
2021/11/20 03:12:50;;;;;;;;;;;5.10;63.10;;;;;;4387362;32;20429;-53
2021/11/20 03:15:16;;;;;;;;;;;5.10;62.80;;;;;;4387228;32;20054;-40
2021/11/20 03:17:43;;;;;;;;;;;5.10;63.00;;;;;;4387206;32;20527;-53
2021/11/20 03:20:11;;;;;;;;;;;5.10;63.10;;;;;;4383149;32;19974;-52
2021/11/20 03:23:01;;;;;;;;;;;5.20;63.00;;;;;;4372125;32;19969;-52
2021/11/20 03:25:28;;;;;;;;;;;5.20;62.80;;;;;;4358387;32;19962;-47
2021/11/20 03:27:54;;;;;;;;;;;5.20;62.90;;;;;;4370762;32;19982;-49
2021/11/20 03:30:20;;;;;;;;;;;5.10;63.00;;;;;;4372693;32;19962;-52
2021/11/20 03:32:46;;;;;;;;;;;5.20;63.10;;;;;;4372516;32;20478;-41
2021/11/20 03:35:13;;;;;;;;;;;5.20;62.90;;;;;;4374843;32;20385;-45
2021/11/20 03:37:39;;;;;;;;;;;5.20;62.60;;;;;;4374966;32;20001;-50
2021/11/20 03:40:07;;;;;;;;;;;5.20;62.60;;;;;;4371996;32;20124;-50
2021/11/20 03:42:33;;;;;;;;;;;5.20;62.60;;;;;;4372614;32;19980;-51
2021/11/20 03:44:59;;;;;;;;;;;5.20;62.60;;;;;;4372617;32;20047;-53
2021/11/20 03:47:25;;;;;;;;;;;5.20;62.60;;;;;;4359548;32;20004;-50
2021/11/20 03:49:52;;;;;;;;;;;5.30;62.60;;;;;;4372053;32;20055;-53
2021/11/20 03:52:18;;;;;;;;;;;5.30;62.50;;;;;;4372387;32;19970;-51
2021/11/20 03:54:45;;;;;;;;;;;5.30;62.20;;;;;;4372293;32;20062;-50
2021/11/20 03:57:11;;;;;;;;;;;5.30;62.10;;;;;;4372211;32;20024;-48
2021/11/20 03:59:37;;;;;;;;;;;5.30;61.90;;;;;;4372008;32;19977;-51
2021/11/20 04:02:04;;;;;;;;;;;5.30;61.90;;;;;;4372163;32;19970;-38
2021/11/20 04:04:30;;;;;;;;;;;5.30;62.00;;;;;;4372413;32;19964;-36
2021/11/20 04:06:57;;;;;;;;;;;5.30;61.70;;;;;;4372488;32;20030;-50
2021/11/20 04:09:23;;;;;;;;;;;5.30;61.90;;;;;;4372123;32;19970;-49
2021/11/20 04:11:49;;;;;;;;;;;5.40;61.80;;;;;;4374111;32;19990;-49
2021/11/20 04:14:16;;;;;;;;;;;5.30;61.90;;;;;;4374676;32;20002;-50
2021/11/20 04:16:42;;;;;;;;;;;5.30;62.00;;;;;;4374323;32;19969;-48
2021/11/20 04:19:09;;;;;;;;;;;5.30;62.10;;;;;;4374176;32;20042;-45
2021/11/20 04:21:36;;;;;;;;;;;5.40;62.00;;;;;;4374249;32;19972;-40
2021/11/20 04:24:02;;;;;;;;;;;5.40;61.90;;;;;;4374563;32;20072;-50
2021/11/20 04:26:29;;;;;;;;;;;5.40;62.00;;;;;;4374419;32;19970;-51
2021/11/20 04:28:55;;;;;;;;;;;5.40;62.20;;;;;;4372694;32;19995;-50
2021/11/20 04:31:22;;;;;;;;;;;5.40;62.00;;;;;;4374072;32;19990;-48
2021/11/20 04:33:48;;;;;;;;;;;5.40;62.00;;;;;;4374296;32;20078;-48
2021/11/20 04:36:15;;;;;;;;;;;5.40;61.90;;;;;;4374345;32;20072;-50
2021/11/20 04:38:41;;;;;;;;;;;5.40;61.90;;;;;;4382885;32;19982;-50
2021/11/20 04:41:07;;;;;;;;;;;5.50;61.90;;;;;;4389079;32;19988;-52
2021/11/20 04:43:34;;;;;;;;;;;5.50;61.50;;;;;;4375280;32;19990;-51
2021/11/20 04:46:00;;;;;;;;;;;5.50;61.50;;;;;;4388905;32;19970;-42
2021/11/20 04:48:26;;;;;;;;;;;5.50;61.30;;;;;;4374825;32;20001;-53
2021/11/20 04:50:54;;;;;;;;;;;5.50;61.30;;;;;;4388762;32;20366;-51
2021/11/20 04:53:20;;;;;;;;;;;5.50;61.10;;;;;;4388058;32;20374;-52
2021/11/20 04:55:46;;;;;;;;;;;5.50;61.00;;;;;;4388581;32;20417;-52
2021/11/20 04:58:13;;;;;;;;;;;5.50;61.10;;;;;;4388525;32;19969;-50
2021/11/20 05:00:43;;;;;;;;;;;5.50;60.90;;;;;;4388960;32;19971;-51
2021/11/20 05:03:09;;;;;;;;;;;5.60;60.90;;;;;;4374355;32;19962;-43
2021/11/20 05:05:37;;;;;;;;;;;5.60;60.70;;;;;;4374922;32;19966;-50
2021/11/20 05:08:03;;;;;;;;;;;5.60;60.70;;;;;;4388972;32;20046;-51
2021/11/20 05:10:31;;;;;;;;;;;5.60;60.70;;;;;;4388476;32;20066;-50
2021/11/20 05:12:57;;;;;;;;;;;5.60;60.70;;;;;;4388550;32;19971;-54
2021/11/20 05:15:23;;;;;;;;;;;5.60;60.50;;;;;;4388842;32;19997;-48
2021/11/20 05:17:49;;;;;;;;;;;5.60;60.40;;;;;;4388643;32;19974;-51
2021/11/20 05:20:16;;;;;;;;;;;5.60;60.30;;;;;;4369733;32;20379;-52
2021/11/20 05:22:42;;;;;;;;;;;5.70;60.00;;;;;;4373415;32;19966;-49
2021/11/20 05:25:09;;;;;;;;;;;5.60;60.00;;;;;;4359227;32;20397;-48
2021/11/20 05:27:35;;;;;;;;;;;5.60;60.00;;;;;;4373361;32;20039;-47
2021/11/20 05:30:08;;;;;;;;;;;5.60;59.80;;;;;;4373415;32;20001;-51
2021/11/20 05:32:35;;;;;;;;;;;5.60;59.50;;;;;;4360091;32;20051;-48
2021/11/20 05:35:01;;;;;;;;;;;5.70;59.40;;;;;;4372742;32;20430;-48
2021/11/20 05:37:27;;;;;;;;;;;5.60;59.30;;;;;;4372740;32;19965;-45
2021/11/20 05:39:53;;;;;;;;;;;5.60;59.60;;;;;;4372959;32;19973;-52
2021/11/20 05:42:20;;;;;;;;;;;5.60;59.60;;;;;;4373624;32;20045;-50
2021/11/20 05:44:46;;;;;;;;;;;5.60;59.80;;;;;;4372775;32;19961;-53
2021/11/20 05:47:12;;;;;;;;;;;5.60;59.70;;;;;;4373284;32;20079;-49
2021/11/20 05:49:40;;;;;;;;;;;5.60;59.80;;;;;;4373380;32;19973;-53
2021/11/20 05:52:07;;;;;;;;;;;5.60;59.80;;;;;;4373433;32;19958;-50
2021/11/20 05:54:33;;;;;;;;;;;5.70;59.70;;;;;;4373124;32;19986;-50
2021/11/20 05:57:00;;;;;;;;;;;5.70;59.80;;;;;;4358904;32;20188;-50
2021/11/20 05:59:26;;;;;;;;;;;5.80;59.80;;;;;;4372595;32;19991;-51
2021/11/20 06:01:53;;;;;;;;;;;5.80;59.50;;;;;;4372897;32;20056;-53
2021/11/20 06:04:19;;;;;;;;;;;5.80;59.60;;;;;;4359196;32;19982;-52
2021/11/20 06:06:46;;;;;;;;;;;5.80;59.20;;;;;;4358749;32;20038;-52
2021/11/20 06:09:12;;;;;;;;;;;5.90;59.20;;;;;;4358688;32;19977;-52
2021/11/20 06:11:38;;;;;;;;;;;5.90;59.20;;;;;;4373173;32;19973;-50
2021/11/20 06:14:05;;;;;;;;;;;5.90;59.00;;;;;;4372688;32;20398;-52
2021/11/20 06:16:31;;;;;;;;;;;5.90;59.10;;;;;;4359053;32;20536;-50
2021/11/20 06:18:58;;;;;;;;;;;5.80;59.20;;;;;;4372015;32;20374;-53
2021/11/20 06:21:24;;;;;;;;;;;5.80;59.10;;;;;;4373104;32;20010;-49
2021/11/20 06:23:50;;;;;;;;;;;5.90;59.20;;;;;;4372351;32;20390;-50
2021/11/20 06:26:17;;;;;;;;;;;5.90;58.70;;;;;;4372263;32;19962;-49
2021/11/20 06:28:44;;;;;;;;;;;5.80;58.90;;;;;;4372894;32;19974;-51
2021/11/20 06:31:10;;;;;;;;;;;5.90;58.60;;;;;;4372818;32;20041;-52
2021/11/20 06:33:37;;;;;;;;;;;5.80;58.40;;;;;;4372384;32;20001;-49
2021/11/20 06:36:04;;;;;;;;;;;5.90;58.20;;;;;;4372235;32;19993;-48
2021/11/20 06:38:30;;;;;;;;;;;5.90;57.90;;;;;;4380631;32;19965;-48
2021/11/20 06:40:59;;;;;;;;;;;5.90;58.00;;;;;;4387379;32;20006;-50
2021/11/20 06:43:27;;;;;;;;;;;6.00;58.30;;;;;;4387652;32;20034;-48
2021/11/20 06:45:58;;;;;;;;;;;6.00;58.10;;;;;;4387972;32;19962;-49
2021/11/20 06:48:25;;;;;;;;;;;6.00;57.70;;;;;;4374205;32;19976;-50
2021/11/20 06:50:51;;;;;;;;;;;6.00;58.00;;;;;;4387643;32;20394;-47
2021/11/20 06:53:18;;;;;;;;;;;6.00;57.80;;;;;;4387438;32;20070;-51
2021/11/20 06:55:45;;;;;;;;;;;6.10;57.80;;;;;;4387537;32;19997;-45
2021/11/20 07:00:52;;;;;;;;;;;6.10;57.90;;;;;;4387474;32;19972;-49
2021/11/20 07:03:29;;;;;;;;;;;6.10;58.80;;;;;;4387018;32;20522;-48
2021/11/20 07:06:01;;;;;;;;;;;6.10;57.90;;;;;;4373771;32;19973;-45
2021/11/20 07:08:28;;;;;;;;;;;6.10;57.90;;;;;;4389008;32;19989;-49
2021/11/20 07:10:54;;;;;;;;;;;6.10;57.80;;;;;;4376163;32;20450;-43
2021/11/20 07:13:21;;;;;;;;;;;6.10;57.90;;;;;;4390013;32;20097;-47
2021/11/20 07:15:48;;;;;;;;;;;6.10;57.90;;;;;;4390308;32;20035;-48
2021/11/20 07:18:15;;;;;;;;;;;6.10;57.60;;;;;;4390447;32;20009;-48
2021/11/20 07:20:42;;;;;;;;;;;6.10;57.60;;;;;;4382637;32;20149;-44
2021/11/20 07:23:08;;;;;;;;;;;6.10;57.80;;;;;;4375329;32;19962;-48
2021/11/20 07:25:35;;;;;;;;;;;6.10;58.00;;;;;;4361437;32;19974;-48
2021/11/20 07:28:01;;;;;;;;;;;6.10;58.20;;;;;;4375303;32;20034;-47
2021/11/20 07:30:29;;;;;;;;;;;6.10;58.40;;;;;;4375437;32;20034;-46
2021/11/20 07:32:56;;;;;;;;;;;6.10;58.50;;;;;;4374914;32;19966;-46
2021/11/20 07:35:25;;;;;;;;;;;6.10;58.60;;;;;;4360788;32;19958;-49
2021/11/20 07:37:52;;;;;;;;;;;6.10;58.80;;;;;;4374493;32;20320;-48
2021/11/20 07:40:18;;;;;;;;;;;6.10;58.80;;;;;;4374862;32;19977;-49
2021/11/20 07:42:44;;;;;;;;;;;6.10;59.00;;;;;;4374809;32;20013;-42
2021/11/20 07:45:10;;;;;;;;;;;6.00;59.20;;;;;;4374364;32;20053;-43
2021/11/20 07:47:36;;;;;;;;;;;6.00;59.50;;;;;;4374416;32;19994;-49
2021/11/20 07:50:04;;;;;;;;;;;6.10;59.40;;;;;;4374356;32;19966;-49
2021/11/20 07:52:31;;;;;;;;;;;6.10;59.20;;;;;;4374294;32;19967;-49
2021/11/20 07:54:57;;;;;;;;;;;6.00;59.20;;;;;;4374492;32;19984;-49
2021/11/20 07:57:23;;;;;;;;;;;6.10;59.30;;;;;;4374720;32;20043;-48
2021/11/20 07:59:49;;;;;;;;;;;6.10;59.00;;;;;;4374270;32;20049;-46
2021/11/20 08:02:16;;;;;;;;;;;6.10;58.70;;;;;;4375063;32;19974;-48
2021/11/20 08:04:42;;;;;;;;;;;6.10;58.90;;;;;;4374360;32;19966;-52
2021/11/20 08:07:08;;;;;;;;;;;6.10;59.00;;;;;;4374242;32;19966;-48
2021/11/20 08:09:35;;;;;;;;;;;6.10;58.90;;;;;;4374547;32;19961;-50
2021/11/20 08:12:02;;;;;;;;;;;6.10;58.90;;;;;;4374376;32;19958;-53
2021/11/20 08:14:28;;;;;;;;;;;6.10;58.70;;;;;;4374490;32;20416;-51
2021/11/20 08:16:54;;;;;;;;;;;6.10;58.80;;;;;;4374416;32;20011;-52
2021/11/20 08:19:20;;;;;;;;;;;6.10;59.00;;;;;;4373699;32;19978;-52
2021/11/20 08:21:47;;;;;;;;;;;6.20;59.10;;;;;;4374366;32;19981;-52
2021/11/20 08:24:14;;;;;;;;;;;6.20;58.40;;;;;;4374460;32;19997;-48
2021/11/20 08:26:42;;;;;;;;;;;6.20;58.40;;;;;;4374193;32;20078;-49
2021/11/20 08:29:11;;;;;;;;;;;6.20;58.30;;;;;;4374278;32;20505;-51
2021/11/20 08:31:40;;;;;;;;;;;6.20;58.20;;;;;;4374195;32;19966;-43
2021/11/20 08:34:06;;;;;;;;;;;6.20;58.20;;;;;;4372801;32;19990;-51
2021/11/20 08:36:33;;;;;;;;;;;6.20;58.20;;;;;;4373843;32;20046;-53
2021/11/20 08:38:59;;;;;;;;;;;6.10;58.00;;;;;;4382912;32;20448;-54
2021/11/20 08:41:25;;;;;;;;;;;6.10;58.10;;;;;;4374684;32;19970;-50
2021/11/20 08:43:51;;;;;;;;;;;6.10;58.30;;;;;;4388794;32;19977;-51
2021/11/20 08:46:17;;;;;;;;;;;6.20;58.40;;;;;;4374842;32;19965;-52
2021/11/20 08:48:44;;;;;;;;;;;6.20;58.40;;;;;;4388904;32;20045;-52
2021/11/20 08:51:13;;;;;;;;;;;6.20;58.70;;;;;;4388729;32;20461;-52
2021/11/20 08:53:39;;;;;;;;;;;6.20;58.90;;;;;;4388910;32;19978;-53
2021/11/20 08:56:06;;;;;;;;;;;6.10;59.00;;;;;;4388720;32;19984;-52
2021/11/20 08:58:34;;;;;;;;;;;6.10;59.30;;;;;;4388207;32;20410;-52
2021/11/20 09:01:24;;;;;;;;;;;6.20;59.20;;;;;;4388744;32;20039;-53
2021/11/20 09:03:58;;;;;;;;;;;6.20;59.30;;;;;;4388625;32;20059;-45
2021/11/20 09:06:35;;;;;;;;;;;6.10;59.50;;;;;;4388182;32;19972;-55
2021/11/20 09:09:17;;;;;;;;;;;6.10;60.00;;;;;;4388426;32;20008;-52
2021/11/20 09:11:53;;;;;;;;;;;6.10;59.50;;;;;;4388593;32;19969;-55
2021/11/20 09:14:37;;;;;;;;;;;6.10;59.30;;;;;;4388656;32;19989;-52
2021/11/20 09:17:03;;;;;;;;;;;6.00;59.40;;;;;;4388304;32;19969;-54
2021/11/20 09:19:31;;;;;;;;;;;6.00;59.50;;;;;;4387659;32;19973;-50
2021/11/20 09:21:58;;;;;;;;;;;6.00;59.50;;;;;;4373284;32;20351;-45
2021/11/20 09:24:26;;;;;;;;;;;6.00;59.50;;;;;;4373395;32;20433;-51
2021/11/20 09:26:52;;;;;;;;;;;6.00;59.50;;;;;;4373048;32;19970;-49
2021/11/20 09:29:19;;;;;;;;;;;6.00;59.50;;;;;;4373581;32;19954;-56
2021/11/20 09:31:46;;;;;;;;;;;6.10;59.70;;;;;;4372785;32;19985;-57
2021/11/20 09:34:16;;;;;;;;;;;6.00;59.60;;;;;;4372679;32;20066;-54
2021/11/20 09:36:44;;;;;;;;;;;6.00;59.60;;;;;;4373484;32;20069;-56
2021/11/20 09:39:11;;;;;;;;;;;6.00;59.80;;;;;;4372406;32;20051;-53
2021/11/20 09:42:08;;;;;;;;;;;6.00;59.70;;;;;;4372772;32;19962;-49
2021/11/20 09:44:38;;;;;;;;;;;6.00;59.80;;;;;;4372995;32;19966;-55
2021/11/20 09:47:11;;;;;;;;;;;6.10;59.60;;;;;;4359049;32;20497;-55
2021/11/20 09:49:42;;;;;;;;;;;6.00;59.60;;;;;;4372968;32;20486;-54
2021/11/20 09:52:08;;;;;;;;;;;6.10;59.60;;;;;;4347053;32;19978;-57
2021/11/20 09:54:38;;;;;;;;;;;6.10;59.50;;;;;;4373087;32;20054;-52
2021/11/20 09:57:10;;;;;;;;;;;6.10;60.10;;;;;;4373068;32;19958;-52
2021/11/20 09:59:41;;;;;;;;;;;6.10;59.50;;;;;;4372889;32;19981;-52
2021/11/20 10:02:07;;;;;;;;;;;6.20;59.50;;;;;;4358895;32;20001;-56
2021/11/20 10:04:45;;;;;;;;;;;6.30;59.20;;;;;;4372359;32;20041;-54
2021/11/20 10:07:21;;;;;;;;;;;6.30;58.70;;;;;;4373057;32;20014;-57
2021/11/20 10:09:51;;;;;;;;;;;6.30;58.70;;;;;;4372464;32;19970;-58
2021/11/20 10:12:22;;;;;;;;;;;6.30;58.60;;;;;;4372347;32;19972;-56
2021/11/20 10:14:49;;;;;;;;;;;6.30;58.70;;;;;;4372687;32;20398;-58
2021/11/20 10:17:33;;;;;;;;;;;6.30;58.70;;;;;;4372633;32;20016;-55
2021/11/20 10:20:17;;;;;;;;;;;6.30;59.30;;;;;;4372537;32;19958;-57
2021/11/20 10:23:03;;;;;;;;;;;6.30;58.40;;;;;;4372897;32;19966;-56
2021/11/20 10:25:52;;;;;;;;;;;6.30;58.50;;;;;;4372780;32;19977;-57
2021/11/20 10:28:56;;;;;;;;;;;6.20;58.60;;;;;;4371019;32;19997;-55
2021/11/20 10:31:31;;;;;;;;;;;6.30;58.80;;;;;;4365154;32;19970;-54
2021/11/20 10:33:59;;;;;;;;;;;6.30;58.80;;;;;;4372871;32;19974;-53
2021/11/20 10:37:00;;;;;;;;;;;6.30;58.90;;;;;;4372704;32;20058;-40
2021/11/20 10:39:51;;;;;;;;;;;6.30;59.30;;;;;;4339629;33;19993;-41
2021/11/20 10:42:20;;;;;;;;;;;6.30;59.30;;;;;;4341125;33;20558;-56
2021/11/20 10:44:55;;;;;;;;;;;6.20;59.50;;;;;;4343569;33;19998;-51
2021/11/20 10:47:42;;;;;;;;;;;6.30;59.40;;;;;;4331130;33;19967;-51
2021/11/20 10:50:29;;;;;;;;;;;6.20;59.30;;;;;;4342940;33;20113;-53
2021/11/20 10:53:26;;;;;;;;;;;6.30;59.60;;;;;;4332000;33;20028;-52
2021/11/20 10:56:23;;;;;;;;;;;6.30;59.50;;;;;;4343356;33;20515;-50
2021/11/20 10:59:17;;;;;;;;;;;6.30;59.50;;;;;;4342952;33;19996;-53
2021/11/20 11:02:01;;;;;;;;;;;6.40;59.50;;;;;;4342501;32;20457;-50
2021/11/20 11:04:57;;;;;;;;;;;6.40;59.40;;;;;;4343386;33;19989;-50
2021/11/20 11:07:31;;;;;;;;;;;6.40;59.30;;;;;;4342891;33;20006;-52
2021/11/20 11:10:11;;;;;;;;;;;6.40;59.50;;;;;;4343329;33;19973;-37
2021/11/20 11:12:52;;;;;;;;;;;6.40;59.40;;;;;;4330546;33;19974;-51
2021/11/20 11:15:34;;;;;;;;;;;6.30;59.30;;;;;;4354939;32;20006;-51
2021/11/20 11:18:32;;;;;;;;;;;6.30;59.60;;;;;;4373096;32;20462;-52
2021/11/20 11:21:22;;;;;;;;;;;6.30;59.80;;;;;;4320508;33;20404;-40
2021/11/20 11:24:20;;;;;;;;;;;6.30;59.90;;;;;;4327688;33;19991;-55
2021/11/20 11:27:17;;;;;;;;;;;6.30;59.90;;;;;;4328005;33;20446;-51
2021/11/20 11:29:59;;;;;;;;;;;6.20;60.10;;;;;;4324330;33;19967;-41
2021/11/20 11:32:27;;;;;;;;;;;6.20;60.30;;;;;;4328035;33;20569;-50
2021/11/20 11:35:06;;;;;;;;;;;6.20;60.40;;;;;;4339749;33;20048;-49
2021/11/20 11:38:08;;;;;;;;;;;6.20;60.50;;;;;;4315385;33;19991;-53
2021/11/20 11:41:07;;;;;;;;;;;6.20;60.60;;;;;;4327522;33;20020;-53
2021/11/20 11:43:51;;;;;;;;;;;6.20;60.40;;;;;;4327231;33;20040;-53
2021/11/20 11:46:45;;;;;;;;;;;6.20;60.70;;;;;;4328062;33;19998;-49
2021/11/20 11:49:15;;;;;;;;;;;6.10;60.80;;;;;;4327261;33;20462;-52
2021/11/20 11:52:18;;;;;;;;;;;6.10;61.20;;;;;;4327041;33;20135;-51
2021/11/20 11:55:01;;;;;;;;;;;6.10;61.20;;;;;;4324235;33;19995;-55
2021/11/20 11:58:05;;;;;;;;;;;6.10;61.30;;;;;;4339144;32;19978;-52
2021/11/20 12:00:42;;;;;;;;;;;6.10;61.20;;;;;;4335566;32;20503;-50
2021/11/20 12:03:27;;;;;;;;;;;6.10;61.20;;;;;;4344603;32;19970;-50
2021/11/20 12:06:12;;;;;;;;;;;6.10;61.20;;;;;;4357137;32;20533;-47
2021/11/20 12:08:41;;;;;;;;;;;6.10;61.10;;;;;;4357265;32;19985;-52
2021/11/20 12:11:29;;;;;;;;;;;6.00;61.00;;;;;;4362251;32;20394;-51
2021/11/20 12:14:09;;;;;;;;;;;6.00;61.10;;;;;;4374334;32;19977;-55
2021/11/20 12:16:56;;;;;;;;;;;6.00;61.10;;;;;;4374120;32;19977;-50
2021/11/20 12:19:43;;;;;;;;;;;6.00;61.10;;;;;;4374239;32;20061;-51
2021/11/20 12:22:42;;;;;;;;;;;6.00;61.00;;;;;;4374122;32;19962;-49
2021/11/20 12:25:26;;;;;;;;;;;6.00;61.00;;;;;;4374060;32;19993;-53
2021/11/20 12:27:55;;;;;;;;;;;6.10;61.10;;;;;;4374062;32;20001;-49
2021/11/20 12:30:58;;;;;;;;;;;6.00;61.10;;;;;;4326568;33;19975;-51
2021/11/20 12:34:00;;;;;;;;;;;6.00;61.30;;;;;;4326598;33;19999;-55
2021/11/20 12:36:48;;;;;;;;;;;5.90;61.60;;;;;;4300794;33;19987;-58
2021/11/20 12:39:41;;;;;;;;;;;5.90;61.90;;;;;;4326661;33;19971;-61
2021/11/20 12:42:13;;;;;;;;;;;5.80;62.20;;;;;;4312162;33;20027;-62
2021/11/20 12:44:56;;;;;;;;;;;5.80;62.50;;;;;;4326626;33;19967;-64
2021/11/20 12:47:41;;;;;;;;;;;5.70;62.70;;;;;;4326769;33;19975;-61
2021/11/20 12:50:31;;;;;;;;;;;5.70;62.90;;;;;;4327138;33;19966;-64
2021/11/20 12:53:21;;;;;;;;;;;5.60;63.20;;;;;;4314530;33;20394;-62
2021/11/20 12:56:23;;;;;;;;;;;5.60;63.50;;;;;;4326379;33;20387;-64
2021/11/20 12:58:51;;;;;;;;;;;5.60;63.60;;;;;;4297557;33;20054;-60
2021/11/20 13:01:20;;;;;;;;;;;5.60;63.90;;;;;;4335324;32;20068;-61
2021/11/20 13:04:06;;;;;;;;;;;5.60;64.00;;;;;;4358559;32;19977;-61
2021/11/20 13:06:36;;;;;;;;;;;5.50;64.00;;;;;;4358449;32;19982;-63
2021/11/20 13:09:08;;;;;;;;;;;5.60;64.20;;;;;;4344931;32;20623;-62
2021/11/20 13:11:50;;;;;;;;;;;5.50;64.20;;;;;;4358333;32;19962;-42
2021/11/20 13:14:47;;;;;;;;;;;5.50;64.30;;;;;;4358503;32;19974;-65
2021/11/20 13:17:20;;;;;;;;;;;5.50;64.50;;;;;;4341123;32;20056;-62
2021/11/20 13:19:51;;;;;;;;;;;5.50;64.50;;;;;;4360615;32;19962;-63
2021/11/20 13:22:21;;;;;;;;;;;5.60;64.60;;;;;;4373261;32;19972;-62
2021/11/20 13:24:50;;;;;;;;;;;5.60;64.50;;;;;;4358724;32;20012;-59
2021/11/20 13:27:41;;;;;;;;;;;5.60;64.50;;;;;;4373424;32;20049;-61
2021/11/20 13:30:12;;;;;;;;;;;5.50;64.60;;;;;;4368769;32;20006;-63
2021/11/20 13:32:45;;;;;;;;;;;5.50;64.80;;;;;;4358435;32;20499;-63
2021/11/20 13:35:11;;;;;;;;;;;5.50;64.80;;;;;;4373004;32;19966;-64
2021/11/20 13:37:37;;;;;;;;;;;5.50;64.70;;;;;;4373423;32;19973;-60
2021/11/20 13:40:04;;;;;;;;;;;5.50;64.70;;;;;;4388519;32;19957;-63
2021/11/20 13:42:35;;;;;;;;;;;5.60;64.80;;;;;;4388109;32;19981;-64
2021/11/20 13:45:05;;;;;;;;;;;5.50;64.90;;;;;;4388540;32;20394;-64
2021/11/20 13:47:32;;;;;;;;;;;5.60;64.90;;;;;;4388228;32;19973;-61
2021/11/20 13:49:58;;;;;;;;;;;5.60;65.00;;;;;;4374269;32;20411;-62
2021/11/20 13:52:26;;;;;;;;;;;5.50;65.10;;;;;;4374321;32;20385;-65
2021/11/20 13:55:00;;;;;;;;;;;5.60;65.20;;;;;;4388299;32;19958;-62
2021/11/20 13:57:36;;;;;;;;;;;5.60;65.10;;;;;;4387778;32;20394;-59
2021/11/20 14:00:10;;;;;;;;;;;5.60;65.10;;;;;;4387604;32;20046;-61
2021/11/20 14:02:53;;;;;;;;;;;5.60;65.20;;;;;;4388402;32;20048;-60
2021/11/20 14:05:20;;;;;;;;;;;5.60;65.20;;;;;;4387307;32;19970;-60
2021/11/20 14:07:47;;;;;;;;;;;5.60;65.10;;;;;;4387725;32;19977;-62
2021/11/20 14:10:30;;;;;;;;;;;5.60;65.20;;;;;;4387890;32;19954;-62
2021/11/20 14:15:28;;;;;;;;;;;5.60;65.00;;;;;;4387822;32;20089;-60
2021/11/20 14:18:01;;;;;;;;;;;5.60;65.10;;;;;;4387382;32;19962;-60
2021/11/20 14:20:28;;;;;;;;;;;5.60;65.10;;;;;;4381364;32;19969;-61
2021/11/20 14:22:54;;;;;;;;;;;5.60;65.20;;;;;;4373039;32;19967;-57
2021/11/20 14:25:22;;;;;;;;;;;5.60;65.20;;;;;;4372517;32;19978;-58
2021/11/20 14:27:59;;;;;;;;;;;5.50;65.20;;;;;;4372645;32;20359;-46
2021/11/20 14:30:26;;;;;;;;;;;5.50;65.20;;;;;;4372767;32;19954;-61
2021/11/20 14:33:06;;;;;;;;;;;5.50;65.30;;;;;;4372299;32;19958;-61
2021/11/20 14:35:32;;;;;;;;;;;5.50;65.40;;;;;;4372376;32;19974;-61
2021/11/20 14:37:59;;;;;;;;;;;5.50;65.40;;;;;;4372634;32;20045;-61
2021/11/20 14:40:25;;;;;;;;;;;5.50;65.30;;;;;;4358745;32;19972;-62
2021/11/20 14:42:52;;;;;;;;;;;5.50;65.40;;;;;;4373085;32;19966;-62
2021/11/20 14:45:23;;;;;;;;;;;5.50;65.50;;;;;;4372514;32;20041;-63
2021/11/20 14:47:51;;;;;;;;;;;5.50;65.40;;;;;;4372724;32;19982;-62
2021/11/20 14:50:26;;;;;;;;;;;5.50;65.40;;;;;;4372466;32;20493;-59
2021/11/20 14:53:20;;;;;;;;;;;5.50;65.40;;;;;;4372345;32;19990;-56
2021/11/20 14:55:55;;;;;;;;;;;5.50;65.40;;;;;;4370760;32;19965;-62
2021/11/20 14:58:22;;;;;;;;;;;5.50;65.50;;;;;;4372372;32;19966;-57
2021/11/20 15:00:58;;;;;;;;;;;5.40;65.40;;;;;;4372706;32;19981;-63
2021/11/20 15:03:32;;;;;;;;;;;5.50;65.50;;;;;;4372397;32;19970;-63
2021/11/20 15:06:02;;;;;;;;;;;5.50;65.50;;;;;;4358627;32;20033;-49